Time;durP1;ratioP1;P1;durP2;ratioP2;P2;SDS_P1;SDS_P2;PMS_P1;PMS_P2;Temp;Humidity;BMP_temperature;BMP_pressure;BME280_temperature;BME280_humidity;BME280_pressure;Samples;Min_cycle;Max_cycle;Signal;HPM_P1;HPM_P2
2022/11/22 00:01:03;;;;;;;4.87;2.83;;;5.10;99.90;;;;;;4115172;28;20549;-69
2022/11/22 00:03:03;;;;;;;4.23;3.00;;;5.10;99.90;;;;;;4129431;28;20633;-69
2022/11/22 00:05:05;;;;;;;4.43;2.80;;;4.80;99.90;;;;;;4113611;28;20453;-69
2022/11/22 00:07:05;;;;;;;3.80;2.80;;;4.80;99.90;;;;;;4130017;28;20284;-69
2022/11/22 00:09:06;;;;;;;4.37;3.00;;;4.90;99.90;;;;;;4113735;28;20870;-69
2022/11/22 00:11:07;;;;;;;3.43;2.63;;;5.10;99.90;;;;;;4113236;28;20191;-69
2022/11/22 00:13:08;;;;;;;5.77;3.47;;;5.10;99.90;;;;;;4130758;28;20659;-69
2022/11/22 00:15:10;;;;;;;3.77;2.37;;;5.10;99.90;;;;;;4129900;28;20423;-69
2022/11/22 00:17:11;;;;;;;3.20;2.63;;;5.10;99.90;;;;;;4131434;28;20469;-69
2022/11/22 00:19:12;;;;;;;2.50;2.10;;;5.10;99.90;;;;;;4131587;28;20448;-69
2022/11/22 00:21:12;;;;;;;3.83;2.77;;;5.20;99.90;;;;;;4131582;28;20190;-69
2022/11/22 00:23:13;;;;;;;3.60;2.73;;;5.20;99.90;;;;;;4128676;28;20182;-69
2022/11/22 00:25:14;;;;;;;3.83;2.80;;;5.20;99.90;;;;;;4131398;28;21031;-70
2022/11/22 00:27:15;;;;;;;6.40;2.73;;;5.20;99.90;;;;;;4131125;28;20574;-69
2022/11/22 00:29:15;;;;;;;5.03;2.43;;;5.20;99.90;;;;;;4131110;28;20425;-69
2022/11/22 00:31:16;;;;;;;2.03;1.77;;;5.20;99.90;;;;;;4113560;28;20190;-68
2022/11/22 00:33:17;;;;;;;4.23;2.50;;;5.30;99.90;;;;;;4130098;28;20195;-69
2022/11/22 00:35:17;;;;;;;2.60;1.93;;;5.20;99.90;;;;;;4130053;28;20218;-71
2022/11/22 00:37:18;;;;;;;2.97;2.20;;;5.30;99.90;;;;;;4130778;28;20214;-68
2022/11/22 00:39:19;;;;;;;2.47;1.70;;;5.20;99.90;;;;;;4129505;28;20182;-68
2022/11/22 00:41:19;;;;;;;3.30;1.47;;;5.30;99.90;;;;;;4131084;28;20183;-68
2022/11/22 00:43:20;;;;;;;1.40;1.23;;;5.20;99.90;;;;;;4128797;28;20186;-68
2022/11/22 00:45:21;;;;;;;2.00;1.70;;;5.30;99.90;;;;;;4113331;28;20298;-68
2022/11/22 00:47:22;;;;;;;3.30;1.30;;;5.10;99.90;;;;;;4128753;28;20193;-68
2022/11/22 00:49:22;;;;;;;1.77;1.00;;;5.10;99.90;;;;;;4128807;28;20644;-69
2022/11/22 00:51:23;;;;;;;0.70;0.70;;;5.10;99.90;;;;;;4130380;28;20289;-68
2022/11/22 00:53:24;;;;;;;2.60;1.27;;;5.10;99.90;;;;;;4132975;28;20190;-69
2022/11/22 00:55:24;;;;;;;2.93;0.80;;;5.00;99.90;;;;;;4132188;28;20185;-69
2022/11/22 00:57:25;;;;;;;5.07;1.17;;;5.10;99.90;;;;;;4133586;28;20233;-69
2022/11/22 00:59:26;;;;;;;3.57;1.50;;;5.10;99.90;;;;;;4133362;28;20195;-69
2022/11/22 01:01:26;;;;;;;1.73;0.73;;;5.00;99.90;;;;;;4133735;28;20186;-69
2022/11/22 01:03:27;;;;;;;2.03;0.80;;;5.10;99.90;;;;;;4126912;28;20202;-69
2022/11/22 01:05:28;;;;;;;1.20;0.73;;;5.20;99.90;;;;;;4132211;28;20190;-69
2022/11/22 01:07:29;;;;;;;1.67;0.97;;;5.10;99.90;;;;;;4133617;28;20229;-70
2022/11/22 01:09:29;;;;;;;2.63;1.00;;;5.20;99.90;;;;;;4132320;28;20193;-69
2022/11/22 01:11:30;;;;;;;4.57;1.17;;;5.20;99.90;;;;;;4133396;28;20193;-69
2022/11/22 01:13:31;;;;;;;2.73;1.00;;;5.10;99.90;;;;;;4115300;28;20187;-69
2022/11/22 01:15:32;;;;;;;3.60;0.83;;;5.00;99.90;;;;;;4133338;28;20190;-69
2022/11/22 01:17:32;;;;;;;4.93;1.30;;;5.00;99.90;;;;;;4133445;28;20561;-69
2022/11/22 01:19:33;;;;;;;1.67;0.93;;;5.10;99.90;;;;;;4124987;28;20562;-69
2022/11/22 01:21:34;;;;;;;2.30;0.90;;;5.10;99.90;;;;;;4117088;28;20179;-69
2022/11/22 01:23:35;;;;;;;3.43;1.10;;;5.10;99.90;;;;;;4130501;28;20210;-69
2022/11/22 01:25:36;;;;;;;6.90;1.00;;;5.10;99.90;;;;;;4128257;28;20273;-68
2022/11/22 01:27:37;;;;;;;2.63;0.93;;;5.10;99.90;;;;;;4130030;28;20457;-68
2022/11/22 01:29:37;;;;;;;4.33;1.10;;;5.30;99.90;;;;;;4131637;28;20219;-69
2022/11/22 01:31:38;;;;;;;4.03;1.30;;;5.40;99.90;;;;;;4132843;28;20234;-69
2022/11/22 01:33:39;;;;;;;1.73;0.90;;;5.50;99.90;;;;;;4130984;28;20269;-69
2022/11/22 01:35:39;;;;;;;3.67;0.80;;;5.50;99.90;;;;;;4133057;28;20212;-69
2022/11/22 01:37:40;;;;;;;1.90;0.87;;;5.40;99.90;;;;;;4133085;28;20214;-69
2022/11/22 01:39:41;;;;;;;2.63;0.93;;;5.50;99.90;;;;;;4132961;28;20213;-70
2022/11/22 01:41:41;;;;;;;3.93;1.20;;;5.60;99.90;;;;;;4131430;28;20182;-68
2022/11/22 01:43:42;;;;;;;4.67;1.30;;;5.70;99.90;;;;;;4131986;28;20304;-69
2022/11/22 01:45:55;;;;;;;2.57;0.87;;;5.80;99.90;;;;;;4132747;28;20183;-69
2022/11/22 01:48:12;;;;;;;5.00;1.23;;;5.70;99.90;;;;;;4131558;28;20285;-69
2022/11/22 01:50:16;;;;;;;3.57;1.23;;;5.70;99.90;;;;;;4131429;28;20563;-69
2022/11/22 01:52:25;;;;;;;1.80;0.90;;;5.70;99.90;;;;;;4131866;28;20524;-69
2022/11/22 01:54:31;;;;;;;3.67;1.00;;;5.70;99.90;;;;;;4131068;28;20487;-70
2022/11/22 01:56:35;;;;;;;5.10;1.57;;;5.70;99.90;;;;;;4132817;28;21167;-69
2022/11/22 01:58:37;;;;;;;2.40;0.80;;;5.80;99.90;;;;;;4131548;28;20424;-69
2022/11/22 02:00:38;;;;;;;4.80;0.90;;;5.60;99.90;;;;;;4131170;28;20440;-69
2022/11/22 02:02:40;;;;;;;2.50;0.90;;;5.50;99.90;;;;;;4130022;28;20433;-69
2022/11/22 02:04:43;;;;;;;1.70;0.80;;;5.40;99.90;;;;;;4131951;28;20210;-70
2022/11/22 02:06:57;;;;;;;3.40;0.90;;;5.50;99.90;;;;;;4130717;28;20982;-69
2022/11/22 02:09:14;;;;;;;3.40;1.20;;;5.60;99.90;;;;;;4130467;28;20429;-69
2022/11/22 02:11:17;;;;;;;2.73;0.90;;;5.70;99.90;;;;;;4130588;28;20432;-70
2022/11/22 02:13:21;;;;;;;2.37;1.00;;;5.50;99.90;;;;;;4129849;28;20863;-69
2022/11/22 02:15:21;;;;;;;2.77;1.00;;;5.60;99.90;;;;;;4130565;28;20903;-69
2022/11/22 02:17:25;;;;;;;5.10;1.13;;;5.60;99.90;;;;;;4130590;28;20512;-70
2022/11/22 02:19:42;;;;;;;6.60;0.90;;;5.60;99.90;;;;;;4130652;28;20182;-69
2022/11/22 02:21:49;;;;;;;2.37;0.97;;;5.60;99.90;;;;;;4115286;28;20955;-70
2022/11/22 02:24:03;;;;;;;5.13;0.90;;;5.60;99.90;;;;;;4130553;28;20449;-69
2022/11/22 02:26:04;;;;;;;3.07;1.00;;;5.60;99.90;;;;;;4130450;28;20421;-69
2022/11/22 02:28:05;;;;;;;3.97;0.80;;;5.60;99.90;;;;;;4130521;28;20463;-69
2022/11/22 02:30:07;;;;;;;4.00;1.10;;;5.70;99.90;;;;;;4130607;28;20576;-70
2022/11/22 02:32:07;;;;;;;4.97;1.17;;;5.60;99.90;;;;;;4130535;28;20457;-69
2022/11/22 02:34:10;;;;;;;4.40;1.70;;;5.40;99.90;;;;;;4130051;28;20441;-67
2022/11/22 02:36:11;;;;;;;7.33;1.10;;;5.30;99.90;;;;;;4131579;28;20210;-68
2022/11/22 02:38:21;;;;;;;2.00;0.83;;;5.30;99.90;;;;;;4130536;28;20830;-68
2022/11/22 02:40:22;;;;;;;10.60;1.20;;;5.40;99.90;;;;;;4130586;28;20859;-68
2022/11/22 02:42:25;;;;;;;2.57;1.00;;;5.50;99.90;;;;;;4130365;28;20418;-68
2022/11/22 02:44:26;;;;;;;3.50;1.00;;;5.60;99.90;;;;;;4130008;28;20457;-68
2022/11/22 02:46:27;;;;;;;6.23;1.70;;;5.60;99.90;;;;;;4130489;28;20449;-68
2022/11/22 02:48:27;;;;;;;5.13;1.27;;;5.70;99.90;;;;;;4131646;28;20472;-68
2022/11/22 02:50:28;;;;;;;5.90;1.37;;;5.70;99.90;;;;;;4131683;28;20186;-68
2022/11/22 02:52:29;;;;;;;4.00;1.00;;;5.70;99.90;;;;;;4131487;28;20186;-68
2022/11/22 02:54:29;;;;;;;5.07;1.30;;;5.70;99.90;;;;;;4131175;28;20210;-68
2022/11/22 02:56:30;;;;;;;6.87;1.20;;;5.70;99.90;;;;;;4129929;28;20221;-68
2022/11/22 02:58:31;;;;;;;3.17;1.10;;;5.80;99.90;;;;;;4131475;28;20190;-69
2022/11/22 03:00:36;;;;;;;3.33;1.00;;;5.80;99.90;;;;;;4131292;28;20209;-69
2022/11/22 03:02:37;;;;;;;2.43;0.90;;;5.90;99.90;;;;;;4113285;28;20286;-68
2022/11/22 03:04:38;;;;;;;3.10;0.90;;;5.90;99.90;;;;;;4113668;28;20520;-69
2022/11/22 03:06:38;;;;;;;5.03;1.20;;;5.80;99.90;;;;;;4129824;28;20194;-68
2022/11/22 03:08:39;;;;;;;2.87;1.23;;;5.80;99.90;;;;;;4129700;28;20198;-68
2022/11/22 03:10:40;;;;;;;3.93;1.00;;;5.90;99.90;;;;;;4129613;28;20217;-69
2022/11/22 03:12:40;;;;;;;2.30;1.00;;;5.60;99.90;;;;;;4130398;28;20186;-68
2022/11/22 03:14:41;;;;;;;2.50;1.00;;;5.60;99.90;;;;;;4130239;28;20198;-68
2022/11/22 03:16:43;;;;;;;3.20;1.50;;;5.60;99.90;;;;;;4129620;28;20546;-69
2022/11/22 03:18:44;;;;;;;2.23;1.00;;;5.30;99.90;;;;;;4129630;28;20225;-69
2022/11/22 03:20:44;;;;;;;6.03;1.67;;;5.30;99.90;;;;;;4126161;28;20952;-68
2022/11/22 03:22:45;;;;;;;2.87;1.20;;;5.30;99.90;;;;;;4128993;28;20273;-68
2022/11/22 03:24:46;;;;;;;6.13;1.40;;;5.20;99.90;;;;;;4113467;28;20203;-69
2022/11/22 03:26:48;;;;;;;3.90;1.30;;;5.20;99.90;;;;;;4137440;28;20698;-68
2022/11/22 03:28:49;;;;;;;5.73;1.83;;;5.20;99.90;;;;;;4140053;28;20294;-69
2022/11/22 03:30:50;;;;;;;4.20;1.40;;;5.30;99.90;;;;;;4130239;28;20491;-68
2022/11/22 03:32:50;;;;;;;3.20;1.77;;;5.30;99.90;;;;;;4112538;28;20193;-69
2022/11/22 03:34:51;;;;;;;3.83;1.37;;;5.40;99.90;;;;;;4130678;28;20289;-68
2022/11/22 03:36:52;;;;;;;5.37;1.40;;;5.40;99.90;;;;;;4129152;28;20220;-68
2022/11/22 03:38:52;;;;;;;3.03;1.17;;;5.30;99.90;;;;;;4129449;28;20662;-69
2022/11/22 03:40:53;;;;;;;4.83;1.77;;;5.30;99.90;;;;;;4130455;28;20174;-69
2022/11/22 03:42:54;;;;;;;5.90;1.23;;;5.30;99.90;;;;;;4112543;28;20194;-68
2022/11/22 03:44:54;;;;;;;2.67;1.10;;;5.40;99.90;;;;;;4130268;28;20202;-69
2022/11/22 03:46:55;;;;;;;6.47;1.37;;;5.40;99.90;;;;;;4128979;28;20190;-68
2022/11/22 03:48:56;;;;;;;6.10;1.40;;;5.40;99.90;;;;;;4130236;28;20185;-69
2022/11/22 03:51:06;;;;;;;5.37;1.53;;;5.30;99.90;;;;;;4130407;28;20190;-68
2022/11/22 03:53:07;;;;;;;4.83;1.30;;;5.10;99.90;;;;;;4128534;28;20722;-69
2022/11/22 03:55:08;;;;;;;5.30;1.20;;;5.10;99.90;;;;;;4129160;28;20586;-68
2022/11/22 03:57:08;;;;;;;5.07;1.20;;;5.10;99.90;;;;;;4127807;28;20473;-68
2022/11/22 03:59:09;;;;;;;4.00;1.10;;;5.20;99.90;;;;;;4145158;28;20216;-69
2022/11/22 04:01:10;;;;;;;4.37;1.50;;;5.20;99.90;;;;;;4129089;28;20182;-68
2022/11/22 04:03:10;;;;;;;7.33;1.23;;;5.10;99.90;;;;;;4128215;28;20190;-68
2022/11/22 04:05:11;;;;;;;4.30;1.23;;;5.10;99.90;;;;;;4130518;28;20198;-69
2022/11/22 04:07:12;;;;;;;7.20;1.57;;;5.20;99.90;;;;;;4128933;28;20208;-69
2022/11/22 04:09:12;;;;;;;8.73;1.50;;;5.30;99.90;;;;;;4128882;28;20221;-69
2022/11/22 04:11:13;;;;;;;8.20;1.60;;;5.30;99.90;;;;;;4129876;28;20194;-69
2022/11/22 04:13:14;;;;;;;6.03;1.63;;;5.40;99.90;;;;;;4112131;28;20345;-69
2022/11/22 04:15:15;;;;;;;3.10;1.17;;;5.30;99.90;;;;;;4128829;28;20206;-68
2022/11/22 04:17:39;;;;;;;2.47;1.20;;;5.20;99.90;;;;;;4128862;28;20218;-69
2022/11/22 04:21:32;;;;;;;5.53;1.30;;;5.10;99.90;;;;;;4128974;28;20548;-69
2022/11/22 04:22:00;;;;;;;3.57;1.17;;;5.20;99.90;;;;;;4130041;28;20468;-69
2022/11/22 04:26:28;;;;;;;5.37;1.27;;;5.20;99.90;;;;;;4128989;28;20200;-68
2022/11/22 04:28:29;;;;;;;2.13;1.00;;;5.10;99.90;;;;;;4128728;28;20457;-69
2022/11/22 04:32:51;;;;;;;3.90;1.47;;;5.20;99.90;;;;;;4128397;28;20643;-69
2022/11/22 04:34:52;;;;;;;3.40;1.20;;;5.20;99.90;;;;;;4130082;28;20449;-69
2022/11/22 04:36:53;;;;;;;3.10;1.10;;;5.20;99.90;;;;;;4129783;28;20495;-68
2022/11/22 04:38:53;;;;;;;7.57;1.50;;;5.20;99.90;;;;;;4129972;28;20266;-69
2022/11/22 04:40:54;;;;;;;7.33;1.60;;;5.20;99.90;;;;;;4128750;28;20189;-69
2022/11/22 04:45:14;;;;;;;6.03;2.13;;;5.10;99.90;;;;;;4129119;28;20228;-69
2022/11/22 04:49:36;;;;;;;6.53;1.77;;;5.00;99.90;;;;;;4129010;28;20686;-69
2022/11/22 04:53:56;;;;;;;6.93;1.83;;;5.00;99.90;;;;;;4128229;28;20228;-69
2022/11/22 04:55:57;;;;;;;5.20;1.60;;;5.00;99.90;;;;;;4128598;28;20428;-68
2022/11/22 04:57:58;;;;;;;2.77;1.60;;;5.10;99.90;;;;;;4129832;28;20186;-69
2022/11/22 04:59:58;;;;;;;10.47;2.50;;;5.00;99.90;;;;;;4129763;28;20194;-69
2022/11/22 05:01:59;;;;;;;4.70;1.80;;;5.00;99.90;;;;;;4129355;28;20193;-69
2022/11/22 05:03:59;;;;;;;4.73;1.70;;;4.90;99.90;;;;;;4127848;28;20214;-69
2022/11/22 05:06:03;;;;;;;5.47;2.30;;;4.90;99.90;;;;;;4128878;28;20218;-69
2022/11/22 05:08:05;;;;;;;9.83;4.30;;;4.80;99.90;;;;;;4128944;28;20194;-69
2022/11/22 05:10:07;;;;;;;6.47;3.37;;;4.80;99.90;;;;;;4128891;28;20935;-69
2022/11/22 05:12:07;;;;;;;11.03;6.67;;;4.90;99.90;;;;;;4129959;28;20426;-68
2022/11/22 05:14:09;;;;;;;17.90;9.97;;;5.00;99.90;;;;;;4112041;28;20465;-69
2022/11/22 05:16:13;;;;;;;3.53;1.43;;;5.10;99.90;;;;;;4129798;28;20178;-69
2022/11/22 05:18:14;;;;;;;12.03;2.40;;;5.00;99.90;;;;;;4123466;28;20423;-69
2022/11/22 05:20:15;;;;;;;9.83;6.93;;;5.00;99.90;;;;;;4113908;28;20429;-69
2022/11/22 05:22:16;;;;;;;15.47;6.83;;;5.10;99.90;;;;;;4113867;28;20175;-69
2022/11/22 05:24:16;;;;;;;9.33;5.40;;;5.10;99.90;;;;;;4111912;28;20246;-69
2022/11/22 05:26:17;;;;;;;9.30;3.90;;;5.10;99.90;;;;;;4112888;28;20187;-69
2022/11/22 05:28:18;;;;;;;12.10;5.00;;;5.20;99.90;;;;;;4113838;28;20191;-69
2022/11/22 05:30:19;;;;;;;13.30;5.13;;;5.20;99.90;;;;;;4113860;28;21171;-69
2022/11/22 05:32:19;;;;;;;7.60;5.00;;;5.20;99.90;;;;;;4113820;28;20288;-69
2022/11/22 05:34:20;;;;;;;7.27;4.20;;;5.20;99.90;;;;;;4113054;28;20199;-69
2022/11/22 05:36:22;;;;;;;8.13;3.80;;;5.20;99.90;;;;;;4113255;28;20744;-69
2022/11/22 05:38:23;;;;;;;5.77;3.07;;;5.10;99.90;;;;;;4113538;28;20207;-69
2022/11/22 05:40:24;;;;;;;8.60;3.00;;;5.00;99.90;;;;;;4116395;28;20971;-69
2022/11/22 05:42:25;;;;;;;11.10;3.13;;;5.00;99.90;;;;;;4115146;28;20277;-69
2022/11/22 05:44:26;;;;;;;7.13;2.40;;;5.00;99.90;;;;;;4098874;28;20471;-69
2022/11/22 05:46:29;;;;;;;7.87;2.27;;;4.90;99.90;;;;;;4122520;28;20742;-69
2022/11/22 05:48:29;;;;;;;2.77;1.60;;;4.90;99.90;;;;;;4130912;28;20928;-69
2022/11/22 05:50:30;;;;;;;4.20;1.60;;;5.00;99.90;;;;;;4114651;28;20437;-69
2022/11/22 05:52:31;;;;;;;5.70;2.40;;;5.00;99.90;;;;;;4130750;28;20201;-69
2022/11/22 05:54:31;;;;;;;6.37;2.80;;;4.90;99.90;;;;;;4129942;28;20209;-68
2022/11/22 05:56:32;;;;;;;8.07;2.30;;;4.80;99.90;;;;;;4131908;28;20210;-69
2022/11/22 05:58:33;;;;;;;5.87;2.00;;;4.80;99.90;;;;;;4132139;28;20728;-68
2022/11/22 06:00:34;;;;;;;4.57;1.63;;;4.70;99.90;;;;;;4130800;28;20273;-68
2022/11/22 06:02:35;;;;;;;6.87;1.90;;;4.50;99.90;;;;;;4130384;28;20990;-69
2022/11/22 06:04:36;;;;;;;7.07;2.10;;;4.60;99.90;;;;;;4132154;28;20199;-69
2022/11/22 06:06:36;;;;;;;22.07;7.13;;;4.60;99.90;;;;;;4131970;28;20198;-69
2022/11/22 06:08:42;;;;;;;21.03;7.47;;;4.60;99.90;;;;;;4130585;28;20182;-69
2022/11/22 06:10:42;;;;;;;12.63;3.93;;;4.60;99.90;;;;;;4130364;28;20263;-69
2022/11/22 06:12:43;;;;;;;12.40;3.60;;;4.40;99.90;;;;;;4130102;28;20518;-68
2022/11/22 06:14:45;;;;;;;11.00;3.10;;;4.30;99.90;;;;;;4132015;28;20220;-68
2022/11/22 06:16:45;;;;;;;15.00;3.47;;;4.30;99.90;;;;;;4131765;28;20293;-69
2022/11/22 06:18:46;;;;;;;5.60;2.50;;;4.30;99.90;;;;;;4130474;28;20422;-69
2022/11/22 06:20:47;;;;;;;6.47;1.67;;;4.20;99.90;;;;;;4114405;28;20206;-69
2022/11/22 06:22:47;;;;;;;8.13;2.10;;;4.20;99.90;;;;;;4130944;28;20945;-68
2022/11/22 06:24:48;;;;;;;7.67;1.90;;;4.20;99.90;;;;;;4131769;28;20209;-69
2022/11/22 06:26:49;;;;;;;6.97;1.43;;;4.30;99.90;;;;;;4130412;28;20212;-68
2022/11/22 06:28:50;;;;;;;8.40;1.80;;;4.20;99.90;;;;;;4130241;28;20225;-69
2022/11/22 06:30:51;;;;;;;7.37;2.10;;;4.30;99.90;;;;;;4140211;28;20178;-69
2022/11/22 06:32:52;;;;;;;5.40;2.00;;;4.10;99.90;;;;;;4135752;28;20451;-69
2022/11/22 06:34:52;;;;;;;8.53;2.17;;;4.10;99.90;;;;;;4132034;28;20213;-69
2022/11/22 06:36:53;;;;;;;29.07;8.87;;;4.10;99.90;;;;;;4130553;28;20636;-69
2022/11/22 06:38:54;;;;;;;23.53;6.43;;;3.90;99.90;;;;;;4130514;28;20210;-69
2022/11/22 06:41:07;;;;;;;22.50;7.03;;;3.90;99.90;;;;;;4130451;28;20231;-69
2022/11/22 06:43:07;;;;;;;6.47;2.77;;;3.90;99.90;;;;;;4130948;28;20233;-69
2022/11/22 06:45:09;;;;;;;17.63;4.93;;;4.00;99.90;;;;;;4130275;28;20447;-69
2022/11/22 06:47:09;;;;;;;8.37;1.67;;;3.90;99.90;;;;;;4131569;28;20193;-68
2022/11/22 06:49:10;;;;;;;7.03;1.90;;;3.80;99.90;;;;;;4130668;28;20430;-69
2022/11/22 06:51:18;;;;;;;6.77;2.40;;;3.80;99.90;;;;;;4129947;28;20182;-69
2022/11/22 06:53:19;;;;;;;10.17;2.97;;;3.90;99.90;;;;;;4129554;28;20182;-69
2022/11/22 06:55:20;;;;;;;14.20;4.43;;;4.00;99.90;;;;;;4130017;28;20429;-69
2022/11/22 06:57:21;;;;;;;7.43;2.30;;;3.90;99.90;;;;;;4130133;28;20690;-69
2022/11/22 06:59:21;;;;;;;10.80;2.67;;;4.00;99.90;;;;;;4113727;28;20422;-69
2022/11/22 07:01:25;;;;;;;9.63;1.90;;;4.00;99.90;;;;;;4131696;28;20182;-69
2022/11/22 07:03:26;;;;;;;5.80;1.50;;;4.00;99.90;;;;;;4129395;28;20186;-69
2022/11/22 07:05:27;;;;;;;7.27;1.93;;;3.90;99.90;;;;;;4131096;28;20421;-69
2022/11/22 07:07:28;;;;;;;5.63;2.37;;;3.90;99.90;;;;;;4131760;28;20871;-69
2022/11/22 07:09:28;;;;;;;13.87;4.07;;;3.90;99.90;;;;;;4130708;28;20664;-69
2022/11/22 07:11:30;;;;;;;11.17;3.83;;;3.90;99.90;;;;;;4130833;28;20251;-69
2022/11/22 07:13:32;;;;;;;4.13;1.37;;;3.90;99.90;;;;;;4129953;28;20193;-69
2022/11/22 07:15:32;;;;;;;3.67;1.50;;;4.00;99.90;;;;;;4130299;28;20434;-69
2022/11/22 07:17:33;;;;;;;6.60;2.67;;;4.00;99.90;;;;;;4129880;28;20813;-69
2022/11/22 07:19:34;;;;;;;6.50;1.70;;;4.00;99.90;;;;;;4129633;28;20181;-69
2022/11/22 07:21:36;;;;;;;6.33;1.77;;;4.00;99.90;;;;;;4130775;28;20228;-69
2022/11/22 07:23:38;;;;;;;8.93;3.00;;;4.00;99.90;;;;;;4130489;28;20198;-68
2022/11/22 07:25:46;;;;;;;10.73;1.97;;;3.90;99.90;;;;;;4129515;28;20942;-69
2022/11/22 07:27:47;;;;;;;4.83;1.43;;;3.90;99.90;;;;;;4128572;28;20521;-69
2022/11/22 07:29:47;;;;;;;5.53;1.57;;;3.90;99.90;;;;;;4113418;28;20466;-69
2022/11/22 07:31:48;;;;;;;6.43;2.00;;;4.00;99.90;;;;;;4114611;28;20190;-69
2022/11/22 07:33:49;;;;;;;7.57;2.13;;;4.00;99.90;;;;;;4114063;28;20640;-69
2022/11/22 07:35:49;;;;;;;4.03;1.37;;;4.00;99.90;;;;;;4129384;28;20624;-69
2022/11/22 07:37:50;;;;;;;2.00;1.20;;;4.10;99.90;;;;;;4113109;28;20203;-69
2022/11/22 07:39:51;;;;;;;7.17;1.50;;;4.00;99.90;;;;;;4114572;28;20179;-69
2022/11/22 07:41:51;;;;;;;7.53;2.80;;;4.00;99.90;;;;;;4114436;28;20194;-69
2022/11/22 07:43:53;;;;;;;6.90;1.70;;;4.00;99.90;;;;;;4113769;28;20209;-69
2022/11/22 07:46:02;;;;;;;6.97;2.67;;;4.00;99.90;;;;;;4129388;28;20178;-69
2022/11/22 07:48:03;;;;;;;4.70;1.67;;;3.90;99.90;;;;;;4129164;28;20440;-70
2022/11/22 07:50:05;;;;;;;5.00;1.83;;;3.90;99.90;;;;;;4114568;28;20933;-69
2022/11/22 07:52:06;;;;;;;4.60;1.60;;;3.80;99.90;;;;;;4129027;28;20273;-70
2022/11/22 07:54:06;;;;;;;4.33;1.63;;;3.80;99.90;;;;;;4113580;28;20599;-70
2022/11/22 07:56:07;;;;;;;5.73;1.93;;;3.90;99.90;;;;;;4129052;28;20480;-70
2022/11/22 07:58:08;;;;;;;6.07;1.43;;;3.90;99.40;;;;;;4112958;28;20190;-69
2022/11/22 08:00:10;;;;;;;6.40;1.20;;;3.90;99.20;;;;;;4114100;28;20191;-71
2022/11/22 08:02:11;;;;;;;5.87;1.37;;;3.90;98.40;;;;;;4128776;28;20213;-69
2022/11/22 08:04:11;;;;;;;6.83;1.70;;;3.90;98.70;;;;;;4112147;28;20454;-69
2022/11/22 08:06:13;;;;;;;7.20;1.33;;;3.90;99.00;;;;;;4128876;28;20417;-69
2022/11/22 08:08:14;;;;;;;18.17;2.27;;;3.80;98.70;;;;;;4128946;28;20278;-70
2022/11/22 08:10:15;;;;;;;2.17;1.60;;;3.90;98.30;;;;;;4112982;28;20437;-70
2022/11/22 08:12:16;;;;;;;3.13;1.20;;;3.70;98.20;;;;;;4112923;28;20183;-70
2022/11/22 08:14:16;;;;;;;6.93;1.23;;;3.70;98.70;;;;;;4121322;28;20467;-70
2022/11/22 08:16:17;;;;;;;2.23;1.20;;;3.80;98.50;;;;;;4128886;28;20601;-69
2022/11/22 08:18:18;;;;;;;4.80;2.00;;;3.90;98.30;;;;;;4128823;28;20582;-69
2022/11/22 08:20:19;;;;;;;5.77;1.50;;;3.80;97.80;;;;;;4128759;28;20241;-69
2022/11/22 08:22:19;;;;;;;4.17;1.30;;;3.80;98.40;;;;;;4128826;28;20670;-70
2022/11/22 08:24:20;;;;;;;3.93;1.30;;;3.90;98.30;;;;;;4129686;28;20204;-70
2022/11/22 08:26:21;;;;;;;7.77;0.97;;;3.90;97.30;;;;;;4128835;28;20192;-71
2022/11/22 08:28:22;;;;;;;7.63;1.50;;;3.90;98.00;;;;;;4128703;28;20433;-70
2022/11/22 08:30:22;;;;;;;4.13;1.10;;;3.90;97.80;;;;;;4129845;28;20178;-70
2022/11/22 08:32:23;;;;;;;5.80;1.87;;;4.10;98.00;;;;;;4128654;28;20183;-70
2022/11/22 08:34:24;;;;;;;2.90;1.10;;;4.00;96.70;;;;;;4133429;28;20689;-70
2022/11/22 08:36:25;;;;;;;5.47;1.30;;;3.90;97.80;;;;;;4139272;28;20683;-69
2022/11/22 08:38:26;;;;;;;2.00;1.17;;;3.90;97.90;;;;;;4114348;28;20182;-70
2022/11/22 08:40:27;;;;;;;4.83;1.10;;;3.90;98.00;;;;;;4129075;28;20463;-69
2022/11/22 08:42:28;;;;;;;5.53;1.30;;;4.00;97.60;;;;;;4130035;28;20655;-70
2022/11/22 08:44:28;;;;;;;2.70;1.10;;;4.10;97.40;;;;;;4111986;28;20238;-70
2022/11/22 08:46:29;;;;;;;1.73;0.90;;;4.20;96.80;;;;;;4129913;28;20194;-69
2022/11/22 08:48:33;;;;;;;2.97;1.30;;;4.10;97.00;;;;;;4112600;28;20190;-70
2022/11/22 08:50:34;;;;;;;8.13;1.70;;;3.90;96.80;;;;;;4128772;28;20185;-70
2022/11/22 08:52:34;;;;;;;2.57;1.00;;;4.00;97.10;;;;;;4129544;28;20426;-70
2022/11/22 08:54:35;;;;;;;4.07;1.20;;;4.00;97.00;;;;;;4129654;28;20213;-70
2022/11/22 08:56:36;;;;;;;5.23;1.10;;;4.10;96.40;;;;;;4128555;28;20729;-70
2022/11/22 08:58:37;;;;;;;3.83;0.90;;;4.10;96.90;;;;;;4128532;28;20190;-70
2022/11/22 09:00:38;;;;;;;2.97;1.27;;;4.40;96.30;;;;;;4128516;28;20187;-70
2022/11/22 09:02:38;;;;;;;3.50;0.90;;;4.50;95.90;;;;;;4111702;28;20542;-70
2022/11/22 09:04:39;;;;;;;3.83;1.20;;;4.40;95.40;;;;;;4129408;28;20709;-70
2022/11/22 09:06:40;;;;;;;5.50;1.23;;;4.40;95.40;;;;;;4129749;28;20572;-69
2022/11/22 09:08:41;;;;;;;4.00;1.00;;;4.30;96.00;;;;;;4128374;28;20182;-69
2022/11/22 09:10:41;;;;;;;3.17;1.07;;;4.40;96.00;;;;;;4128491;28;20186;-69
2022/11/22 09:12:44;;;;;;;4.47;1.30;;;4.50;95.70;;;;;;4112169;28;20285;-70
2022/11/22 09:14:45;;;;;;;5.30;1.20;;;4.60;95.30;;;;;;4131744;28;20210;-70
2022/11/22 09:16:45;;;;;;;5.77;1.77;;;4.50;95.70;;;;;;4132723;28;20527;-69
2022/11/22 09:18:47;;;;;;;6.07;1.53;;;4.50;95.90;;;;;;4132645;28;20182;-70
2022/11/22 09:20:47;;;;;;;4.70;1.13;;;4.60;95.10;;;;;;4131505;28;20192;-70
2022/11/22 09:22:48;;;;;;;2.80;0.90;;;4.60;95.80;;;;;;4130605;28;20889;-70
2022/11/22 09:24:48;;;;;;;8.43;1.33;;;4.60;95.50;;;;;;4120756;28;20640;-69
2022/11/22 09:26:49;;;;;;;3.63;1.33;;;4.50;94.60;;;;;;4115285;28;20883;-70
2022/11/22 09:28:52;;;;;;;3.63;0.93;;;4.60;94.60;;;;;;4116380;28;20187;-70
2022/11/22 09:31:03;;;;;;;5.83;1.00;;;4.60;94.50;;;;;;4131411;28;20670;-69
2022/11/22 09:33:04;;;;;;;5.10;1.30;;;4.60;93.90;;;;;;4130836;28;20425;-70
2022/11/22 09:35:05;;;;;;;5.47;1.73;;;4.60;94.50;;;;;;4131137;28;21066;-69
2022/11/22 09:37:06;;;;;;;2.90;1.00;;;4.60;93.70;;;;;;4116703;28;20839;-69
2022/11/22 09:39:08;;;;;;;1.23;0.70;;;4.50;93.00;;;;;;4116322;28;20183;-69
2022/11/22 09:41:14;;;;;;;5.53;1.10;;;4.60;93.80;;;;;;4131282;28;20273;-70
2022/11/22 09:44:09;;;;;;;6.63;1.87;;;4.70;93.40;;;;;;4130529;28;20441;-70
2022/11/22 09:46:38;;;;;;;5.13;1.50;;;4.70;93.10;;;;;;4105142;28;20430;-70
2022/11/22 09:49:05;;;;;;;5.07;1.60;;;4.60;92.60;;;;;;4116255;28;20513;-70
2022/11/22 09:51:15;;;;;;;4.67;1.37;;;4.60;93.10;;;;;;4130893;28;20505;-70
2022/11/22 09:53:21;;;;;;;4.80;1.77;;;4.70;93.10;;;;;;4114497;28;20910;-70
2022/11/22 09:55:45;;;;;;;2.63;1.10;;;4.80;93.10;;;;;;4130857;28;20452;-70
2022/11/22 09:58:16;;;;;;;4.70;1.03;;;4.80;92.90;;;;;;4114839;28;20905;-70
2022/11/22 10:00:24;;;;;;;2.80;1.20;;;4.80;93.20;;;;;;4115311;28;20455;-70
2022/11/22 10:02:33;;;;;;;6.43;1.50;;;4.80;93.00;;;;;;4116037;28;20437;-70
2022/11/22 10:04:46;;;;;;;5.57;1.37;;;4.80;93.10;;;;;;4115836;28;20453;-70
2022/11/22 10:06:58;;;;;;;7.13;1.57;;;4.80;91.90;;;;;;4130816;28;20433;-69
2022/11/22 10:09:42;;;;;;;2.90;1.30;;;4.90;92.60;;;;;;4114689;28;20516;-69
2022/11/22 10:11:58;;;;;;;7.63;1.43;;;5.00;92.50;;;;;;4134095;28;20437;-70
2022/11/22 10:14:05;;;;;;;4.00;1.17;;;4.90;92.00;;;;;;4130171;28;20457;-70
2022/11/22 10:16:38;;;;;;;6.10;1.20;;;4.90;92.90;;;;;;4114572;28;20506;-70
2022/11/22 10:18:58;;;;;;;4.47;1.10;;;5.10;92.60;;;;;;4110173;28;20458;-70
2022/11/22 10:20:59;;;;;;;3.47;1.50;;;5.20;91.80;;;;;;4123902;28;20445;-70
2022/11/22 10:23:00;;;;;;;5.13;1.13;;;5.30;92.40;;;;;;4131209;28;20459;-69
2022/11/22 10:25:20;;;;;;;1.70;0.97;;;5.50;92.00;;;;;;4130552;28;20442;-70
2022/11/22 10:27:21;;;;;;;9.20;1.37;;;5.30;92.00;;;;;;4114330;28;20426;-70
2022/11/22 10:29:56;;;;;;;3.30;1.30;;;5.30;92.10;;;;;;4114547;28;20858;-70
2022/11/22 10:32:18;;;;;;;3.07;1.10;;;5.40;91.40;;;;;;4130652;28;20178;-70
2022/11/22 10:34:43;;;;;;;2.13;1.20;;;5.40;91.50;;;;;;4130932;28;21020;-71
2022/11/22 10:36:54;;;;;;;2.00;1.03;;;5.30;92.40;;;;;;4114518;28;20565;-70
2022/11/22 10:39:14;;;;;;;4.80;1.67;;;5.20;91.90;;;;;;4134247;28;20568;-70
2022/11/22 10:41:26;;;;;;;2.47;1.00;;;5.30;92.90;;;;;;4137563;28;20428;-71
2022/11/22 10:43:49;;;;;;;4.43;1.30;;;5.20;92.50;;;;;;4131822;28;20417;-69
2022/11/22 10:46:16;;;;;;;6.93;1.10;;;5.10;93.80;;;;;;4114588;28;20235;-70
2022/11/22 10:48:52;;;;;;;4.80;0.90;;;5.10;94.00;;;;;;4130671;28;20269;-69
2022/11/22 10:51:18;;;;;;;4.50;1.30;;;4.90;94.70;;;;;;4131726;28;20452;-70
2022/11/22 10:53:29;;;;;;;4.00;1.07;;;4.90;95.10;;;;;;4130962;28;20471;-70
2022/11/22 10:56:01;;;;;;;1.87;1.00;;;4.80;94.60;;;;;;4130263;28;20938;-70
2022/11/22 10:58:20;;;;;;;1.90;0.80;;;4.90;95.60;;;;;;4130173;28;20551;-70
2022/11/22 11:00:26;;;;;;;2.90;0.90;;;4.80;95.20;;;;;;4130201;28;20436;-70
2022/11/22 11:02:59;;;;;;;4.77;1.30;;;4.60;95.50;;;;;;4130035;28;20915;-70